AirNav   TITAN Aviation Fuels
 
 1109 users online  

1MU2 Smitty's Landing Airport
Ridgely, Missouri, USA

GOING TO RIDGELY?


FAA INFORMATION EFFECTIVE 03 NOVEMBER 2022

Location

FAA Identifier: 1MU2
Lat/Long: 39-26-42.0660N 094-39-51.7770W
39-26.701100N 094-39.862950W
39.4450183,-94.6643825
(estimated)
Elevation: 800 ft. / 244 m (estimated)
Variation: 04E (1995)
From city: 2 miles SW of RIDGELY, MO
Time zone: UTC -6 (UTC -5 during Daylight Saving Time)
Zip code: 64444

Airport Operations

Airport use: Private use. Permission required prior to landing
Activation date: 09/1996
Control tower: no
ARTCC: KANSAS CITY CENTER
FSS: COLUMBIA FLIGHT SERVICE STATION
Attendance: UNATNDD
Wind indicator: yes
Segmented circle: no

Airport Communications

WX ASOS at MCI (9 nm S): PHONE 816-329-2808
WX AWOS-3T at GPH (18 nm E): 120.275 (816-407-3399)
WX ASOS at MKC (20 nm S): 120.75 (816-329-2843)

Nearby radio navigation aids

VOR radial/distance  VOR name  Freq  Var
MCIr014/10.2KANSAS CITY VORTAC113.2505E
ANXr303/32.5NAPOLEON VORTAC114.0007E
STJr151/33.2ST JOSEPH VORTAC115.5008E
BQSr250/38.2BRAYMER VOR/DME115.3503E

 
NDB name  Hdg/Dist  Freq  Var  ID
AMAZON153/28.623304EAZN .- --.. -.

Airport Services

Runway Information

Runway 12/30

Dimensions: 1400 x 60 ft. / 427 x 18 m
Surface: turf
RUNWAY 12  RUNWAY 30
Latitude: 39-26.762200N39-26.640000N
Longitude: 094-39.989067W094-39.736833W
Elevation: 788.0 ft.791.0 ft.
Traffic pattern: leftleft
Obstructions: none4 ft. fence, 5 ft. from runway

Airport Ownership and Management from official FAA records

Ownership: Privately-owned
Owner: MIKE & JANE SMITH
7415 DICKS CREEK RD
EDGERTON, MO 64444
Phone 816-853-1584
Manager: MIKE & JANE SMITH
7415 DICKS CREEK RD
EDGERTON, MO 64444
Phone 816-853-1584

Airport Operational Statistics

Aircraft based on the field: 1
Single engine airplanes: 1
    

Additional Remarks

FOR CD CTC KANSAS CITY APCH AT 816-329-2710.
CTC MGR FOR INFO ON SHORT TERM TIEDOWNS AND SHRT TERM HANGER SPACE.

Instrument Procedures

There are no published instrument procedures at 1MU2.

Some nearby airports with instrument procedures:

KMCI - Kansas City International Airport (9 nm S)
KFLV - Sherman Army Airfield (12 nm W)
KGPH - Midwest National Air Center Airport (18 nm E)
KMKC - Charles B Wheeler Downtown Airport (20 nm S)
3EX - Excelsior Springs Memorial Airport (23 nm E)
 
Loc | Ops | Rwys | IFR | FBO | Links
Com | Nav | Svcs | Stats | Notes
Area around 1MU2 (Smitty's Landing Airport)
 
Road maps at: MapQuest Bing Google
 
Aerial photo
No photo
 
Sectional chart

 
Airport distance calculator
Flying to Smitty's Landing Airport? Find the distance to fly.

From to 1MU2

Sunrise and sunset
Times for 29-Nov-2022
 Local
(UTC-6)
 Zulu
(UTC)
Morning civil twilight06:4912:49
Sunrise07:1913:19
Sunset16:5522:55
Evening civil twilight17:2523:25

Current date and time
Zulu (UTC)  30-Nov-2022 00:13:40
Local (UTC-6)  29-Nov-2022 18:13:40
 
METAR
KMCI 
9nm S 
292353Z 33014G26KT 10SM OVC022 00/M06 A2989 RMK AO2 PK WND 32029/2340 SLP124 60000 T00001061 10083 20000 53057
KGPH 
18nm E 
292355Z AUTO 32015G26KT 10SM OVC024 00/M05 A2988 RMK AO2
KMKC 
20nm S 
292354Z 32016G26KT 10SM OVC025 00/M06 A2989 RMK AO2 PK WND 30027/2338 SLP125 60000 T00001056 10133 20000 53057
TAF
KMCI 
9nm S 
292117Z 2921/3018 32015G25KT P6SM OVC015 FM300100 32014G24KT P6SM SCT070 FM301200 30010KT P6SM SKC
KMKC 
20nm S 
291728Z 2918/3018 29016G26KT P6SM BKN018 FM300100 32013G23KT P6SM SCT070 FM301200 30010KT P6SM SKC
NOTAMs
Click for the latest NOTAMs
NOTAMs are issued by the DoD/FAA and will open in a separate window not controlled by AirNav.

 

 
 

Would you like to see your business listed on this page?

 If your business provides an interesting product or service to pilots, flight crews, aircraft, or users of the Smitty's Landing Airport, you should consider listing it here.  To start the listing process, click on the button below
 
Add a business
 

Other Pages about Smitty's Landing Airport

Update a link
 
Copyright © AirNav, LLC. All rights reserved. Privacy Policy  Contact